createdAt,value
2022-12-09T00:00:23.757Z,0.90
2022-12-09T00:01:23.801Z,0.88
2022-12-09T00:02:23.943Z,0.88
2022-12-09T00:03:24.182Z,0.86
2022-12-09T00:04:24.117Z,0.86
2022-12-09T00:05:23.806Z,0.88
2022-12-09T00:06:23.963Z,0.85
2022-12-09T00:07:23.966Z,0.86
2022-12-09T00:08:23.985Z,0.84
2022-12-09T00:09:23.851Z,0.82
2022-12-09T00:10:23.860Z,0.78
2022-12-09T00:11:23.905Z,0.79
2022-12-09T00:12:23.886Z,0.84
2022-12-09T00:13:23.913Z,0.85
2022-12-09T00:14:24.109Z,0.89
2022-12-09T00:15:24.025Z,0.88
2022-12-09T00:16:24.054Z,0.93
2022-12-09T00:17:24.267Z,0.96
2022-12-09T00:18:23.940Z,0.97
2022-12-09T00:19:23.954Z,0.99
2022-12-09T00:20:23.969Z,1.01
2022-12-09T00:21:24.159Z,1.02
2022-12-09T00:22:24.241Z,1.05
2022-12-09T00:23:24.257Z,1.06
2022-12-09T00:24:24.020Z,1.08
2022-12-09T00:25:24.026Z,1.10
2022-12-09T00:26:24.079Z,1.09
2022-12-09T00:27:24.087Z,1.12
2022-12-09T00:28:24.060Z,1.08
2022-12-09T00:29:24.089Z,1.08
2022-12-09T00:30:24.339Z,1.08
2022-12-09T00:31:24.162Z,1.10
2022-12-09T00:32:24.141Z,1.13
2022-12-09T00:33:24.355Z,1.15
2022-12-09T00:34:24.199Z,1.15
2022-12-09T00:35:24.370Z,1.13
2022-12-09T00:36:24.255Z,1.12
2022-12-09T00:37:24.170Z,1.12
2022-12-09T00:38:24.416Z,1.06
2022-12-09T00:39:24.224Z,1.00
2022-12-09T00:40:24.457Z,1.00
2022-12-09T00:41:24.497Z,1.00
2022-12-09T00:42:24.228Z,0.99
2022-12-09T00:43:24.253Z,0.98
2022-12-09T00:44:24.246Z,1.03
2022-12-09T00:45:24.270Z,1.00
2022-12-09T00:46:24.363Z,1.01
2022-12-09T00:47:24.546Z,1.02
2022-12-09T00:48:24.302Z,1.02
2022-12-09T00:49:24.318Z,1.00
2022-12-09T00:50:24.380Z,0.99
2022-12-09T00:51:24.340Z,0.95
2022-12-09T00:52:24.361Z,0.95
2022-12-09T00:53:24.464Z,0.96
2022-12-09T00:54:24.631Z,0.96
2022-12-09T00:55:24.699Z,0.96
2022-12-09T00:56:24.409Z,0.96
2022-12-09T00:57:24.376Z,0.93
2022-12-09T00:58:24.428Z,0.91
2022-12-09T00:59:24.564Z,0.93
2022-12-09T01:00:24.478Z,0.94
2022-12-09T01:01:24.559Z,0.96
2022-12-09T01:02:24.609Z,0.91
2022-12-09T01:03:24.895Z,0.92
2022-12-09T01:04:24.648Z,0.90
2022-12-09T01:05:24.734Z,0.91
2022-12-09T01:06:24.490Z,0.90
2022-12-09T01:07:24.476Z,0.88
2022-12-09T01:08:24.564Z,0.90
2022-12-09T01:09:24.544Z,0.87
2022-12-09T01:10:24.751Z,0.84
2022-12-09T01:11:24.517Z,0.81
2022-12-09T01:12:24.564Z,0.78
2022-12-09T01:13:24.814Z,0.77
2022-12-09T01:14:24.854Z,0.82
2022-12-09T01:15:24.608Z,0.80
2022-12-09T01:16:24.739Z,0.80
2022-12-09T01:17:24.770Z,0.80
2022-12-09T01:18:24.649Z,0.80
2022-12-09T01:36:25.483Z,0.66
2022-12-09T01:37:24.901Z,0.67
2022-12-09T01:38:25.124Z,0.66
2022-12-09T01:39:24.848Z,0.66
2022-12-09T01:40:25.138Z,0.67
2022-12-09T01:41:25.047Z,0.68
2022-12-09T01:42:24.885Z,0.68
2022-12-09T01:43:25.054Z,0.66
2022-12-09T01:44:24.896Z,0.68
2022-12-09T01:45:24.937Z,0.69
2022-12-09T01:46:25.309Z,0.69
2022-12-09T01:47:25.008Z,0.70
2022-12-09T01:48:25.045Z,0.68
2022-12-09T01:49:25.216Z,0.68
2022-12-09T01:50:25.284Z,0.66
2022-12-09T01:51:25.166Z,0.68
2022-12-09T01:52:25.060Z,0.70
2022-12-09T01:53:25.094Z,0.69
2022-12-09T01:54:25.192Z,0.71
2022-12-09T01:55:25.234Z,0.71
2022-12-09T01:56:25.017Z,0.67
2022-12-09T01:57:25.112Z,0.66
2022-12-09T01:58:25.221Z,0.67
2022-12-09T01:59:25.370Z,0.66
2022-12-09T02:00:25.057Z,0.67
2022-12-09T02:01:25.314Z,0.69
2022-12-09T02:02:25.271Z,0.66
2022-12-09T02:03:25.249Z,0.66
2022-12-09T02:04:25.471Z,0.66
2022-12-09T02:05:25.310Z,0.67
2022-12-09T02:06:25.212Z,0.68
2022-12-09T02:07:25.167Z,0.72
2022-12-09T02:08:25.563Z,0.74
2022-12-09T02:09:25.214Z,0.73
2022-12-09T02:10:25.223Z,0.77
2022-12-09T02:11:25.498Z,0.74
2022-12-09T02:12:25.453Z,0.74
2022-12-09T02:13:25.183Z,0.76
2022-12-09T02:14:25.202Z,0.79
2022-12-09T02:15:25.259Z,0.82
2022-12-09T02:16:25.554Z,0.86
2022-12-09T02:17:25.387Z,0.84
2022-12-09T02:18:25.259Z,0.84
2022-12-09T02:19:25.607Z,0.83
2022-12-09T02:20:25.424Z,0.85
2022-12-09T02:21:25.629Z,0.85
2022-12-09T02:22:25.284Z,0.82
2022-12-09T02:23:25.291Z,0.81
2022-12-09T02:24:25.299Z,0.80
2022-12-09T02:25:25.309Z,0.81
2022-12-09T02:26:25.317Z,0.84
2022-12-09T02:27:25.342Z,0.88
2022-12-09T02:28:25.395Z,0.90
2022-12-09T02:29:25.497Z,0.88
2022-12-09T02:30:25.733Z,0.88
2022-12-09T02:31:25.689Z,0.88
2022-12-09T02:32:25.799Z,0.86
2022-12-09T02:33:25.631Z,0.87
2022-12-09T02:34:25.636Z,0.88
2022-12-09T02:35:25.772Z,0.90
2022-12-09T02:36:25.646Z,0.88
2022-12-09T02:37:25.462Z,0.88
2022-12-09T02:38:25.476Z,0.86
2022-12-09T02:39:25.638Z,0.85
2022-12-09T02:40:25.681Z,0.85
2022-12-09T02:41:25.715Z,0.88
2022-12-09T02:42:25.527Z,0.88
2022-12-09T02:43:25.527Z,0.89
2022-12-09T02:44:25.705Z,0.89
2022-12-09T02:45:25.587Z,0.91
2022-12-09T02:46:25.780Z,0.90
2022-12-09T02:47:25.891Z,0.91
2022-12-09T02:48:25.682Z,0.93
2022-12-09T02:49:25.646Z,0.92
2022-12-09T02:50:25.625Z,0.90
2022-12-09T02:51:25.772Z,0.91
2022-12-09T02:52:25.867Z,0.89
2022-12-09T02:53:25.829Z,0.88
2022-12-09T02:54:25.650Z,0.91
2022-12-09T02:55:25.695Z,0.92
2022-12-09T02:56:25.665Z,0.90
2022-12-09T02:57:26.014Z,0.88
2022-12-09T02:58:26.052Z,0.86
2022-12-09T02:59:25.750Z,0.89
2022-12-09T03:00:25.714Z,0.90
2022-12-09T03:01:25.782Z,0.90
2022-12-09T03:02:26.235Z,0.89
2022-12-09T03:03:25.808Z,0.91
2022-12-09T03:04:25.835Z,0.90
2022-12-09T03:05:26.080Z,0.90
2022-12-09T03:06:25.766Z,0.89
2022-12-09T03:07:25.991Z,0.93
2022-12-09T03:08:25.848Z,0.94
2022-12-09T03:09:25.891Z,0.95
2022-12-09T03:10:25.838Z,0.95
2022-12-09T03:11:25.818Z,0.94
2022-12-09T03:12:25.881Z,0.95
2022-12-09T03:13:26.112Z,0.97
2022-12-09T03:14:26.066Z,0.98
2022-12-09T03:15:25.908Z,1.00
2022-12-09T03:16:26.095Z,1.04
2022-12-09T03:17:26.020Z,1.01
2022-12-09T03:18:26.152Z,1.03
2022-12-09T03:19:25.965Z,1.03
2022-12-09T03:20:25.948Z,1.05
2022-12-09T03:21:26.182Z,1.00
2022-12-09T03:22:26.025Z,1.02
2022-12-09T03:23:26.268Z,1.02
2022-12-09T03:24:26.193Z,1.03
2022-12-09T03:25:26.365Z,1.04
2022-12-09T03:26:26.347Z,1.05
2022-12-09T03:27:26.052Z,1.07
2022-12-09T03:28:26.187Z,1.04
2022-12-09T03:29:26.038Z,1.05
2022-12-09T03:30:26.046Z,1.06
2022-12-09T03:31:26.381Z,1.07
2022-12-09T03:32:26.149Z,1.07
2022-12-09T03:33:26.511Z,1.10
2022-12-09T03:34:26.217Z,1.13
2022-12-09T03:35:26.120Z,1.14
2022-12-09T03:36:26.448Z,1.15
2022-12-09T03:37:26.128Z,1.18
2022-12-09T03:38:26.132Z,1.17
2022-12-09T03:39:26.242Z,1.22
2022-12-09T03:40:26.265Z,1.23
2022-12-09T03:41:26.365Z,1.23
2022-12-09T03:42:26.183Z,1.21
2022-12-09T03:43:26.186Z,1.18
2022-12-09T03:44:26.205Z,1.11
2022-12-09T03:45:26.258Z,1.06
2022-12-09T03:46:26.336Z,1.07
2022-12-09T03:47:26.701Z,1.08
2022-12-09T03:48:26.348Z,1.06
2022-12-09T03:49:26.507Z,1.05
2022-12-09T03:50:26.617Z,1.06
2022-12-09T03:51:26.293Z,1.11
2022-12-09T03:52:26.507Z,1.12
2022-12-09T03:53:26.305Z,1.14
2022-12-09T03:54:26.368Z,1.16
2022-12-09T03:55:26.429Z,1.18
2022-12-09T03:56:26.415Z,1.20
2022-12-09T03:57:26.655Z,1.22
2022-12-09T03:58:26.346Z,1.22
2022-12-09T03:59:26.364Z,1.23
2022-12-09T04:00:26.450Z,1.24
2022-12-09T04:01:26.838Z,1.26
2022-12-09T04:02:26.565Z,1.24
2022-12-09T04:03:26.596Z,1.24
2022-12-09T04:04:26.428Z,1.27
2022-12-09T04:05:26.474Z,1.25
2022-12-09T04:06:26.476Z,1.26
2022-12-09T04:07:26.459Z,1.26
2022-12-09T04:08:26.647Z,1.29
2022-12-09T04:09:26.570Z,1.29
2022-12-09T04:10:26.744Z,1.30
2022-12-09T04:11:26.689Z,1.29
2022-12-09T04:12:26.532Z,1.31
2022-12-09T04:13:26.525Z,1.32
2022-12-09T04:14:26.529Z,1.30
2022-12-09T04:15:26.885Z,1.30
2022-12-09T04:16:26.893Z,1.30
2022-12-09T04:17:26.654Z,1.31
2022-12-09T04:18:26.677Z,1.29
2022-12-09T04:19:26.954Z,1.30
2022-12-09T04:20:26.599Z,1.27
2022-12-09T04:21:26.610Z,1.24
2022-12-09T04:22:26.681Z,1.20
2022-12-09T04:23:26.805Z,1.23
2022-12-09T04:24:26.782Z,1.21
2022-12-09T04:25:26.905Z,1.22
2022-12-09T04:26:26.788Z,1.21
2022-12-09T04:27:26.907Z,1.22
2022-12-09T04:28:26.726Z,1.21
2022-12-09T04:29:26.924Z,1.24
2022-12-09T04:30:27.124Z,1.24
2022-12-09T04:31:27.195Z,1.28
2022-12-09T04:32:26.861Z,1.27
2022-12-09T04:33:26.961Z,1.30
2022-12-09T04:34:27.047Z,1.31
2022-12-09T04:35:26.953Z,1.32
2022-12-09T04:36:26.969Z,1.31
2022-12-09T04:37:26.815Z,1.29
2022-12-09T04:38:26.814Z,1.31
2022-12-09T04:39:26.830Z,1.32
2022-12-09T04:40:26.859Z,1.32
2022-12-09T04:41:26.877Z,1.32
2022-12-09T04:42:27.152Z,1.30
2022-12-09T04:43:26.933Z,1.28
2022-12-09T04:44:26.912Z,1.25
2022-12-09T04:45:26.913Z,1.24
2022-12-09T04:46:27.107Z,1.22
2022-12-09T04:47:27.046Z,1.23
2022-12-09T04:48:27.286Z,1.22
2022-12-09T04:49:27.012Z,1.25
2022-12-09T04:50:27.266Z,1.24
2022-12-09T04:51:27.056Z,1.21
2022-12-09T04:52:27.028Z,1.22
2022-12-09T04:53:27.305Z,1.23
2022-12-09T04:54:27.006Z,1.24
2022-12-09T04:55:27.426Z,1.21
2022-12-09T04:56:27.220Z,1.21
2022-12-09T04:57:27.216Z,1.22
2022-12-09T04:58:27.051Z,1.23
2022-12-09T04:59:27.066Z,1.25
2022-12-09T05:00:27.436Z,1.27
2022-12-09T05:01:31.105Z,1.27
2022-12-09T05:02:27.457Z,1.27
2022-12-09T05:03:27.451Z,1.26
2022-12-09T05:04:27.262Z,1.26
2022-12-09T05:05:27.704Z,1.28
2022-12-09T05:06:27.493Z,1.28
2022-12-09T05:07:27.503Z,1.27
2022-12-09T05:08:31.303Z,1.27
2022-12-09T05:09:27.275Z,1.27
2022-12-09T05:10:27.295Z,1.28
2022-12-09T05:11:27.537Z,1.30
2022-12-09T05:12:27.533Z,1.29
2022-12-09T05:13:27.436Z,1.27
2022-12-09T05:14:27.530Z,1.30
2022-12-09T05:15:27.610Z,1.29
2022-12-09T05:16:27.463Z,1.26
2022-12-09T05:17:27.581Z,1.26
2022-12-09T05:18:27.457Z,1.28
2022-12-09T05:19:27.394Z,1.25
2022-12-09T05:20:27.500Z,1.24
2022-12-09T05:21:27.483Z,1.25
2022-12-09T05:22:27.343Z,1.23
2022-12-09T05:23:27.672Z,1.19
2022-12-09T05:24:27.794Z,1.19
2022-12-09T05:25:27.611Z,1.18
2022-12-09T05:26:27.742Z,1.16
2022-12-09T05:27:27.647Z,1.13
2022-12-09T05:28:27.463Z,1.14
2022-12-09T05:29:27.638Z,1.13
2022-12-09T05:30:27.647Z,1.12
2022-12-09T05:31:27.601Z,1.10
2022-12-09T05:32:27.616Z,1.09
2022-12-09T05:33:27.908Z,1.06
2022-12-09T05:34:27.656Z,1.03
2022-12-09T05:35:27.889Z,1.03
2022-12-09T05:36:27.767Z,1.00
2022-12-09T05:37:27.569Z,1.00
2022-12-09T05:38:27.609Z,1.02
2022-12-09T05:39:27.944Z,1.03
2022-12-09T05:40:27.589Z,1.03
2022-12-09T05:41:27.981Z,1.05
2022-12-09T05:42:27.693Z,1.07
2022-12-09T05:43:27.720Z,1.09
2022-12-09T05:44:27.932Z,1.10
2022-12-09T05:45:27.901Z,1.08
2022-12-09T05:46:28.160Z,1.10
2022-12-09T05:47:27.774Z,1.12
2022-12-09T05:48:27.944Z,1.10
2022-12-09T05:49:27.749Z,1.10
2022-12-09T05:50:27.961Z,1.11
2022-12-09T05:51:27.886Z,1.10
2022-12-09T05:52:27.942Z,1.10
2022-12-09T05:53:27.780Z,1.13
2022-12-09T05:54:28.022Z,1.12
2022-12-09T05:55:28.208Z,1.14
2022-12-09T05:56:27.834Z,1.15
2022-12-09T05:57:28.188Z,1.17
2022-12-09T05:58:27.810Z,1.16
2022-12-09T05:59:28.125Z,1.19
2022-12-09T06:00:28.018Z,1.20
2022-12-09T06:01:27.908Z,1.21
2022-12-09T06:02:27.965Z,1.20
2022-12-09T06:03:28.194Z,1.21
2022-12-09T06:04:28.022Z,1.19
2022-12-09T06:05:28.214Z,1.21
2022-12-09T06:06:28.408Z,1.21
2022-12-09T06:07:27.969Z,1.24
2022-12-09T06:08:28.264Z,1.21
2022-12-09T06:09:28.004Z,1.18
2022-12-09T06:10:27.988Z,1.16
2022-12-09T06:11:28.163Z,1.18
2022-12-09T06:12:28.031Z,1.20
2022-12-09T06:13:28.060Z,1.20
2022-12-09T06:14:28.035Z,1.23
2022-12-09T06:15:33.030Z,1.25
2022-12-09T06:16:28.169Z,1.27
2022-12-09T06:17:28.407Z,1.25
2022-12-09T06:18:28.222Z,1.22
2022-12-09T06:19:28.073Z,1.23
2022-12-09T06:20:28.523Z,1.24
2022-12-09T06:21:28.093Z,1.25
2022-12-09T06:22:28.159Z,1.23
2022-12-09T06:23:28.220Z,1.27
2022-12-09T06:24:28.161Z,1.28
2022-12-09T06:25:28.472Z,1.26
2022-12-09T06:26:28.297Z,1.27
2022-12-09T06:27:28.189Z,1.30
2022-12-09T06:28:28.484Z,1.31
2022-12-09T06:29:28.312Z,1.30
2022-12-09T06:30:28.537Z,1.31
2022-12-09T06:31:28.436Z,1.32
2022-12-09T06:32:28.665Z,1.32
2022-12-09T06:34:28.376Z,1.29
2022-12-09T06:35:28.562Z,1.32
2022-12-09T06:36:28.909Z,1.33
2022-12-09T06:37:28.618Z,1.35
2022-12-09T06:38:28.377Z,1.32
2022-12-09T06:39:28.538Z,1.30
2022-12-09T06:40:28.410Z,1.32
2022-12-09T06:41:28.346Z,1.32
2022-12-09T06:42:28.429Z,1.29
2022-12-09T06:43:28.436Z,1.27
2022-12-09T06:44:28.547Z,1.27
2022-12-09T06:45:28.764Z,1.28
2022-12-09T06:46:28.797Z,1.28
2022-12-09T06:47:28.565Z,1.28
2022-12-09T06:48:28.662Z,1.28
2022-12-09T06:49:28.581Z,1.29
2022-12-09T06:50:28.728Z,1.30
2022-12-09T06:51:28.761Z,1.32
2022-12-09T06:52:28.779Z,1.37
2022-12-09T06:53:28.828Z,1.33
2022-12-09T06:54:28.506Z,1.33
2022-12-09T06:55:28.654Z,1.34
2022-12-09T06:56:28.898Z,1.36
2022-12-09T06:57:28.733Z,1.35
2022-12-09T06:58:28.951Z,1.34
2022-12-09T06:59:28.747Z,1.35
2022-12-09T07:00:28.600Z,1.33
2022-12-09T07:01:28.722Z,1.37
2022-12-09T07:02:32.710Z,1.37
2022-12-09T07:03:28.999Z,1.38
2022-12-09T07:04:29.131Z,1.37
2022-12-09T07:05:28.796Z,1.38
2022-12-09T07:06:28.775Z,1.37
2022-12-09T07:07:28.723Z,1.36
2022-12-09T07:08:29.094Z,1.37
2022-12-09T07:09:28.832Z,1.35
2022-12-09T07:10:29.028Z,1.35
2022-12-09T07:11:29.184Z,1.36
2022-12-09T07:12:29.052Z,1.35
2022-12-09T07:13:28.852Z,1.36
2022-12-09T07:14:28.854Z,1.33
2022-12-09T07:15:28.724Z,1.33
2022-12-09T07:16:29.266Z,1.32
2022-12-09T07:17:28.856Z,1.34
2022-12-09T07:18:29.193Z,1.31
2022-12-09T07:19:29.035Z,1.30
2022-12-09T07:20:29.142Z,1.31
2022-12-09T07:21:29.043Z,1.31
2022-12-09T07:22:28.929Z,1.29
2022-12-09T07:23:28.992Z,1.30
2022-12-09T07:24:29.088Z,1.32
2022-12-09T07:25:29.056Z,1.35
2022-12-09T07:26:29.113Z,1.34
2022-12-09T07:27:29.222Z,1.33
2022-12-09T07:28:29.241Z,1.32
2022-12-09T07:29:29.021Z,1.33
2022-12-09T07:30:29.340Z,1.38
2022-12-09T07:31:29.491Z,1.38
2022-12-09T07:32:29.125Z,1.37
2022-12-09T07:33:29.574Z,1.40
2022-12-09T07:34:29.206Z,1.41
2022-12-09T07:35:29.182Z,1.39
2022-12-09T07:36:29.477Z,1.44
2022-12-09T07:37:29.136Z,1.43
2022-12-09T07:38:29.206Z,1.43
2022-12-09T07:39:29.270Z,1.43
2022-12-09T07:40:29.448Z,1.43
2022-12-09T07:41:29.143Z,1.45
2022-12-09T07:42:29.537Z,1.45
2022-12-09T07:43:29.486Z,1.44
2022-12-09T07:44:29.616Z,1.45
2022-12-09T07:45:29.380Z,1.45
2022-12-09T07:46:29.838Z,1.47
2022-12-09T07:47:29.556Z,1.49
2022-12-09T07:48:29.456Z,1.50
2022-12-09T07:49:29.353Z,1.49
2022-12-09T07:50:29.332Z,1.49
2022-12-09T07:51:29.512Z,1.47
2022-12-09T07:52:29.516Z,1.49
2022-12-09T07:53:29.653Z,1.49
2022-12-09T07:54:29.593Z,1.50
2022-12-09T07:55:29.438Z,1.53
2022-12-09T07:56:29.554Z,1.51
2022-12-09T07:57:29.830Z,1.54
2022-12-09T07:58:29.398Z,1.55
2022-12-09T07:59:29.595Z,1.55
2022-12-09T08:00:29.533Z,1.55
2022-12-09T08:01:29.545Z,1.56
2022-12-09T08:02:29.581Z,1.56
2022-12-09T08:03:29.736Z,1.58
2022-12-09T08:04:29.954Z,1.57
2022-12-09T08:05:29.651Z,1.60
2022-12-09T08:06:29.664Z,1.58
2022-12-09T08:07:30.062Z,1.60
2022-12-09T08:08:30.078Z,1.63
2022-12-09T08:09:29.771Z,1.62
2022-12-09T08:10:29.822Z,1.61
2022-12-09T08:11:30.045Z,1.65
2022-12-09T08:12:29.579Z,1.67
2022-12-09T08:13:29.838Z,1.66
2022-12-09T08:14:29.694Z,1.67
2022-12-09T08:15:29.776Z,1.65
2022-12-09T08:16:29.950Z,1.63
2022-12-09T08:17:29.667Z,1.67
2022-12-09T08:18:29.725Z,1.69
2022-12-09T08:19:29.790Z,1.71
2022-12-09T08:20:30.405Z,1.72
2022-12-09T08:21:29.967Z,1.73
2022-12-09T08:22:29.758Z,1.75
2022-12-09T08:23:29.760Z,1.75
2022-12-09T08:24:30.073Z,1.74
2022-12-09T08:25:30.119Z,1.75
2022-12-09T08:26:30.436Z,1.75
2022-12-09T08:27:30.249Z,1.77
2022-12-09T08:28:29.917Z,1.81
2022-12-09T08:29:30.018Z,1.80
2022-12-09T08:30:30.314Z,1.79
2022-12-09T08:31:30.909Z,1.78
2022-12-09T08:32:29.973Z,1.78
2022-12-09T08:33:29.918Z,1.80
2022-12-09T08:34:30.046Z,1.81
2022-12-09T08:35:29.958Z,1.81
2022-12-09T08:36:29.903Z,1.82
2022-12-09T08:37:29.857Z,1.80
2022-12-09T08:38:30.166Z,1.81
2022-12-09T08:39:30.304Z,1.82
2022-12-09T08:40:30.198Z,1.80
2022-12-09T08:41:29.959Z,1.76
2022-12-09T08:42:29.838Z,1.75
2022-12-09T08:43:30.134Z,1.70
2022-12-09T08:44:29.886Z,1.71
2022-12-09T08:45:30.246Z,1.72
2022-12-09T08:46:30.081Z,1.72
2022-12-09T08:47:30.377Z,1.73
2022-12-09T08:48:30.429Z,1.77
2022-12-09T08:49:30.062Z,1.74
2022-12-09T08:50:30.327Z,1.76
2022-12-09T08:51:29.886Z,1.76
2022-12-09T08:52:30.846Z,1.76
2022-12-09T08:53:30.293Z,1.75
2022-12-09T08:54:30.163Z,1.80
2022-12-09T08:55:30.012Z,1.77
2022-12-09T08:56:37.415Z,1.78
2022-12-09T08:57:30.141Z,1.75
2022-12-09T08:58:30.065Z,1.75
2022-12-09T08:59:30.204Z,1.78
2022-12-09T09:00:30.367Z,1.81
2022-12-09T09:01:29.995Z,1.84
2022-12-09T09:02:30.116Z,1.82
2022-12-09T09:03:30.525Z,1.87
2022-12-09T09:04:30.116Z,1.88
2022-12-09T09:05:30.175Z,1.88
2022-12-09T09:06:30.244Z,1.89
2022-12-09T09:07:30.246Z,1.92
2022-12-09T09:08:30.030Z,1.93
2022-12-09T09:09:30.102Z,1.90
2022-12-09T09:10:30.323Z,1.90
2022-12-09T09:11:30.725Z,1.89
2022-12-09T09:12:30.499Z,1.89
2022-12-09T09:13:30.093Z,1.86
2022-12-09T09:14:30.070Z,1.84
2022-12-09T09:15:30.403Z,1.85
2022-12-09T09:16:30.602Z,1.78
2022-12-09T09:17:30.618Z,1.73
2022-12-09T09:18:30.195Z,1.70
2022-12-09T09:19:30.218Z,1.64
2022-12-09T09:20:30.209Z,1.65
2022-12-09T09:21:30.540Z,1.61
2022-12-09T09:22:30.567Z,1.57
2022-12-09T09:23:30.216Z,1.57
2022-12-09T09:24:30.165Z,1.55
2022-12-09T09:25:30.592Z,1.56
2022-12-09T09:26:30.251Z,1.57
2022-12-09T09:27:30.434Z,1.58
2022-12-09T09:28:31.599Z,1.61
2022-12-09T09:29:30.190Z,1.58
2022-12-09T09:30:30.544Z,1.54
2022-12-09T09:31:30.421Z,1.53
2022-12-09T09:32:30.440Z,1.51
2022-12-09T09:33:30.679Z,1.47
2022-12-09T09:34:30.578Z,1.46
2022-12-09T09:35:30.436Z,1.44
2022-12-09T09:36:30.327Z,1.42
2022-12-09T09:37:30.423Z,1.39
2022-12-09T09:38:30.257Z,1.33
2022-12-09T09:39:30.677Z,1.25
2022-12-09T09:40:30.393Z,1.19
2022-12-09T09:41:30.693Z,1.13
2022-12-09T09:42:30.277Z,1.13
2022-12-09T09:43:30.636Z,1.03
2022-12-09T09:44:30.424Z,1.01
2022-12-09T09:45:30.740Z,0.97
2022-12-09T09:46:30.397Z,0.95
2022-12-09T09:47:34.723Z,0.87
2022-12-09T09:48:30.408Z,0.88
2022-12-09T09:49:30.902Z,0.82
2022-12-09T09:50:30.839Z,0.81
2022-12-09T09:51:30.479Z,0.80
2022-12-09T09:52:30.390Z,0.76
2022-12-09T09:53:30.728Z,0.75
2022-12-09T09:54:30.503Z,0.77
2022-12-09T09:55:30.461Z,0.76
2022-12-09T09:56:30.674Z,0.71
2022-12-09T09:57:30.706Z,0.70
2022-12-09T09:58:30.428Z,0.68
2022-12-09T09:59:30.945Z,0.64
2022-12-09T10:00:30.837Z,0.60
2022-12-09T10:01:30.646Z,0.58
2022-12-09T10:02:30.887Z,0.56
2022-12-09T10:03:30.683Z,0.51
2022-12-09T10:04:30.625Z,0.52
2022-12-09T10:05:30.777Z,0.48
2022-12-09T10:06:31.116Z,0.47
2022-12-09T10:07:30.684Z,0.49
2022-12-09T10:08:30.517Z,0.47
2022-12-09T10:09:31.063Z,0.44
2022-12-09T10:10:30.734Z,0.40
2022-12-09T10:11:30.711Z,0.36
2022-12-09T10:12:30.760Z,0.33
2022-12-09T10:13:30.856Z,0.35
2022-12-09T10:14:30.707Z,0.33
2022-12-09T10:15:30.663Z,0.32
2022-12-09T10:16:30.861Z,0.28
2022-12-09T10:17:30.763Z,0.28
2022-12-09T10:18:30.723Z,0.29
2022-12-09T10:19:30.952Z,0.30
2022-12-09T10:20:30.749Z,0.28
2022-12-09T10:21:30.811Z,0.25
2022-12-09T10:22:30.752Z,0.24
2022-12-09T10:23:31.019Z,0.22
2022-12-09T10:24:34.271Z,0.21
2022-12-09T10:25:31.008Z,0.21
2022-12-09T10:26:31.141Z,0.20
2022-12-09T10:27:30.722Z,0.24
2022-12-09T10:28:30.609Z,0.25
2022-12-09T10:29:30.570Z,0.25
2022-12-09T10:30:36.366Z,0.29
2022-12-09T10:31:30.710Z,0.29
2022-12-09T10:32:30.896Z,0.32
2022-12-09T10:33:30.807Z,0.32
2022-12-09T10:34:31.086Z,0.33
2022-12-09T10:35:30.821Z,0.33
2022-12-09T10:36:35.302Z,0.32
2022-12-09T10:37:30.822Z,0.32
2022-12-09T10:38:30.984Z,0.34
2022-12-09T10:39:31.115Z,0.36
2022-12-09T10:40:30.966Z,0.39
2022-12-09T10:41:30.949Z,0.46
2022-12-09T10:42:34.993Z,0.42
2022-12-09T10:43:30.707Z,0.40
2022-12-09T10:44:31.152Z,0.41
2022-12-09T10:45:45.880Z,0.41
2022-12-09T10:46:30.756Z,0.41
2022-12-09T10:47:30.867Z,0.43
2022-12-09T10:48:32.900Z,0.40
2022-12-09T10:49:31.238Z,0.41
2022-12-09T10:50:30.837Z,0.46
2022-12-09T10:51:31.131Z,0.48
2022-12-09T10:52:31.057Z,0.48
2022-12-09T10:53:31.157Z,0.50
2022-12-09T10:54:31.072Z,0.52
2022-12-09T10:55:30.759Z,0.57
2022-12-09T10:56:30.842Z,0.54
2022-12-09T10:57:31.245Z,0.50
2022-12-09T10:58:31.067Z,0.50
2022-12-09T10:59:30.783Z,0.49
2022-12-09T11:00:34.704Z,0.48
2022-12-09T11:01:31.287Z,0.49
2022-12-09T11:02:31.115Z,0.49
2022-12-09T11:03:30.907Z,0.48
2022-12-09T11:04:31.012Z,0.47
2022-12-09T11:05:30.991Z,0.49
2022-12-09T11:06:31.314Z,0.51
2022-12-09T11:07:31.284Z,0.49
2022-12-09T11:08:31.279Z,0.47
2022-12-09T11:09:31.215Z,0.44
2022-12-09T11:10:31.181Z,0.44
2022-12-09T11:11:30.902Z,0.44
2022-12-09T11:12:36.638Z,0.43
2022-12-09T11:13:30.980Z,0.40
2022-12-09T11:14:31.281Z,0.46
2022-12-09T11:15:32.338Z,0.42
2022-12-09T11:16:31.262Z,0.42
2022-12-09T11:17:30.987Z,0.42
2022-12-09T11:18:31.184Z,0.44
2022-12-09T11:19:31.025Z,0.44
2022-12-09T11:20:31.607Z,0.42
2022-12-09T11:21:30.987Z,0.43
2022-12-09T11:22:31.109Z,0.46
2022-12-09T11:23:31.130Z,0.43
2022-12-09T11:24:31.120Z,0.44
2022-12-09T11:25:31.080Z,0.44
2022-12-09T11:26:31.051Z,0.44
2022-12-09T11:27:31.210Z,0.46
2022-12-09T11:28:31.116Z,0.43
2022-12-09T11:29:31.164Z,0.43
2022-12-09T11:30:31.768Z,0.38
2022-12-09T11:31:33.240Z,0.38
2022-12-09T11:32:31.578Z,0.37
2022-12-09T11:33:31.586Z,0.37
2022-12-09T11:34:31.629Z,0.35
2022-12-09T11:35:31.253Z,0.39
2022-12-09T11:36:31.314Z,0.37
2022-12-09T11:37:31.053Z,0.38
2022-12-09T11:38:31.066Z,0.39
2022-12-09T11:39:31.074Z,0.38
2022-12-09T11:40:31.076Z,0.38
2022-12-09T11:41:31.100Z,0.38
2022-12-09T11:42:31.095Z,0.40
2022-12-09T11:43:31.116Z,0.41
2022-12-09T11:44:31.108Z,0.40
2022-12-09T11:45:31.111Z,0.42
2022-12-09T11:46:31.159Z,0.42
2022-12-09T11:47:33.647Z,0.45
2022-12-09T11:48:36.130Z,0.47
2022-12-09T11:49:31.138Z,0.44
2022-12-09T11:50:31.539Z,0.49
2022-12-09T11:51:31.155Z,0.49
2022-12-09T11:52:31.162Z,0.49
2022-12-09T11:53:31.166Z,0.48
2022-12-09T11:54:31.171Z,0.45
2022-12-09T11:55:31.177Z,0.44
2022-12-09T11:56:31.182Z,0.48
2022-12-09T11:57:31.190Z,0.46
2022-12-09T11:58:31.195Z,0.49
2022-12-09T11:59:34.825Z,0.45
2022-12-09T12:00:31.208Z,0.46
2022-12-09T12:01:31.215Z,0.44
2022-12-09T12:02:31.222Z,0.45
2022-12-09T12:03:31.284Z,0.42
2022-12-09T12:04:31.232Z,0.41
2022-12-09T12:05:31.234Z,0.41
2022-12-09T12:06:31.237Z,0.39
2022-12-09T12:07:31.244Z,0.40
2022-12-09T12:08:31.311Z,0.39
2022-12-09T12:09:31.256Z,0.41
2022-12-09T12:10:31.258Z,0.41
2022-12-09T12:11:31.265Z,0.40
2022-12-09T12:12:31.270Z,0.42
2022-12-09T12:13:31.281Z,0.44
2022-12-09T12:14:31.286Z,0.43
2022-12-09T12:15:31.301Z,0.42
2022-12-09T12:16:34.810Z,0.44
2022-12-09T12:17:31.346Z,0.40
2022-12-09T12:18:31.319Z,0.41
2022-12-09T12:19:31.328Z,0.41
2022-12-09T12:20:31.326Z,0.42
2022-12-09T12:21:31.337Z,0.45
2022-12-09T12:22:31.337Z,0.41
2022-12-09T12:23:31.344Z,0.38
2022-12-09T12:24:31.353Z,0.37
2022-12-09T12:25:31.356Z,0.36
2022-12-09T12:26:31.363Z,0.35
2022-12-09T12:27:31.374Z,0.33
2022-12-09T12:28:31.375Z,0.32
2022-12-09T12:29:31.382Z,0.36
2022-12-09T12:30:31.386Z,0.34
2022-12-09T12:31:31.405Z,0.37
2022-12-09T12:32:31.403Z,0.37
2022-12-09T12:34:37.380Z,0.36
2022-12-09T12:35:31.417Z,0.36
2022-12-09T12:36:31.423Z,0.35
2022-12-09T12:37:31.428Z,0.33
2022-12-09T12:38:31.442Z,0.36
2022-12-09T12:39:31.449Z,0.36
2022-12-09T12:40:31.462Z,0.39
2022-12-09T12:41:31.463Z,0.37
2022-12-09T12:42:31.477Z,0.36
2022-12-09T12:43:31.481Z,0.35
2022-12-09T12:44:31.486Z,0.36
2022-12-09T12:45:31.539Z,0.37
2022-12-09T12:46:31.549Z,0.35
2022-12-09T12:47:31.504Z,0.35
2022-12-09T12:48:31.601Z,0.36
2022-12-09T12:49:31.519Z,0.34
2022-12-09T12:50:31.525Z,0.33
2022-12-09T12:51:31.532Z,0.34
2022-12-09T12:52:54.726Z,0.35
2022-12-09T12:53:31.545Z,0.35
2022-12-09T12:54:31.550Z,0.34
2022-12-09T12:55:31.559Z,0.34
2022-12-09T12:56:31.561Z,0.35
2022-12-09T12:57:31.568Z,0.37
2022-12-09T12:58:31.575Z,0.35
2022-12-09T12:59:31.583Z,0.33
2022-12-09T13:00:31.592Z,0.33
2022-12-09T13:01:31.643Z,0.33
2022-12-09T13:02:31.661Z,0.32
2022-12-09T13:03:31.608Z,0.31
2022-12-09T13:04:31.617Z,0.30
2022-12-09T13:05:31.630Z,0.33
2022-12-09T13:06:31.631Z,0.33
2022-12-09T13:07:31.642Z,0.32
2022-12-09T13:08:31.649Z,0.31
2022-12-09T13:09:31.653Z,0.29
2022-12-09T13:10:31.663Z,0.28
2022-12-09T13:11:31.668Z,0.30
2022-12-09T13:12:31.675Z,0.28
2022-12-09T13:13:31.683Z,0.29
2022-12-09T13:14:31.687Z,0.30
2022-12-09T13:15:31.695Z,0.28
2022-12-09T13:16:31.757Z,0.29
2022-12-09T13:17:31.711Z,0.28
2022-12-09T13:18:31.772Z,0.26
2022-12-09T13:19:31.719Z,0.24
2022-12-09T13:20:31.728Z,0.22
2022-12-09T13:21:31.734Z,0.21
2022-12-09T13:22:31.742Z,0.20
2022-12-09T13:23:31.749Z,0.22
2022-12-09T13:24:31.764Z,0.27
2022-12-09T13:25:31.765Z,0.22
2022-12-09T13:26:31.771Z,0.22
2022-12-09T13:27:31.780Z,0.21
2022-12-09T13:28:31.785Z,0.20
2022-12-09T13:29:31.794Z,0.21
2022-12-09T13:30:31.834Z,0.19
2022-12-09T13:31:31.802Z,0.18
2022-12-09T13:32:31.813Z,0.16
2022-12-09T13:33:31.816Z,0.14
2022-12-09T13:34:31.826Z,0.15
2022-12-09T13:35:31.826Z,0.13
2022-12-09T13:36:36.221Z,0.12
2022-12-09T13:37:31.843Z,0.10